sensor_id;sensor_type;location;lat;lon;timestamp;P1;durP1;ratioP1;P2;durP2;ratioP2
8225;SDS011;4154;48.810;9.012;2023-04-07T00:01:46;7.70;;;6.90;;
8225;SDS011;4154;48.810;9.012;2023-04-07T00:04:12;7.20;;;6.50;;
8225;SDS011;4154;48.810;9.012;2023-04-07T00:06:37;7.30;;;6.60;;
8225;SDS011;4154;48.810;9.012;2023-04-07T00:09:04;7.43;;;6.57;;
8225;SDS011;4154;48.810;9.012;2023-04-07T00:11:30;8.67;;;7.20;;
8225;SDS011;4154;48.810;9.012;2023-04-07T00:13:55;7.70;;;6.90;;
8225;SDS011;4154;48.810;9.012;2023-04-07T00:16:22;7.30;;;6.60;;
8225;SDS011;4154;48.810;9.012;2023-04-07T00:18:48;7.87;;;7.07;;
8225;SDS011;4154;48.810;9.012;2023-04-07T00:21:13;7.87;;;7.07;;
8225;SDS011;4154;48.810;9.012;2023-04-07T00:23:39;8.07;;;6.90;;
8225;SDS011;4154;48.810;9.012;2023-04-07T00:26:04;7.43;;;6.73;;
8225;SDS011;4154;48.810;9.012;2023-04-07T00:28:31;7.73;;;6.93;;
8225;SDS011;4154;48.810;9.012;2023-04-07T00:30:56;7.70;;;7.00;;
8225;SDS011;4154;48.810;9.012;2023-04-07T00:33:22;7.00;;;6.40;;
8225;SDS011;4154;48.810;9.012;2023-04-07T00:35:48;7.20;;;6.50;;
8225;SDS011;4154;48.810;9.012;2023-04-07T00:38:14;7.40;;;6.63;;
8225;SDS011;4154;48.810;9.012;2023-04-07T00:40:40;7.83;;;7.03;;
8225;SDS011;4154;48.810;9.012;2023-04-07T00:43:06;8.30;;;7.00;;
8225;SDS011;4154;48.810;9.012;2023-04-07T00:45:31;7.27;;;6.57;;
8225;SDS011;4154;48.810;9.012;2023-04-07T00:47:57;7.70;;;6.83;;
8225;SDS011;4154;48.810;9.012;2023-04-07T00:50:24;7.63;;;6.80;;
8225;SDS011;4154;48.810;9.012;2023-04-07T00:52:49;7.67;;;6.47;;
8225;SDS011;4154;48.810;9.012;2023-04-07T00:55:15;7.77;;;6.90;;
8225;SDS011;4154;48.810;9.012;2023-04-07T00:57:41;7.57;;;6.77;;
8225;SDS011;4154;48.810;9.012;2023-04-07T01:00:07;7.50;;;6.80;;
8225;SDS011;4154;48.810;9.012;2023-04-07T01:02:42;7.63;;;6.93;;
8225;SDS011;4154;48.810;9.012;2023-04-07T01:05:41;7.67;;;6.97;;
8225;SDS011;4154;48.810;9.012;2023-04-07T01:08:22;7.43;;;6.60;;
8225;SDS011;4154;48.810;9.012;2023-04-07T01:11:09;9.70;;;7.00;;
8225;SDS011;4154;48.810;9.012;2023-04-07T01:13:48;8.13;;;7.13;;
8225;SDS011;4154;48.810;9.012;2023-04-07T01:16:16;7.47;;;6.60;;
8225;SDS011;4154;48.810;9.012;2023-04-07T01:18:54;8.50;;;7.60;;
8225;SDS011;4154;48.810;9.012;2023-04-07T01:21:28;7.70;;;6.87;;
8225;SDS011;4154;48.810;9.012;2023-04-07T01:30:10;7.37;;;6.67;;
8225;SDS011;4154;48.810;9.012;2023-04-07T01:32:38;8.20;;;7.40;;
8225;SDS011;4154;48.810;9.012;2023-04-07T01:35:09;8.00;;;7.20;;
8225;SDS011;4154;48.810;9.012;2023-04-07T01:37:37;8.10;;;7.30;;
8225;SDS011;4154;48.810;9.012;2023-04-07T01:40:05;7.73;;;6.93;;
8225;SDS011;4154;48.810;9.012;2023-04-07T01:42:33;7.83;;;6.80;;
8225;SDS011;4154;48.810;9.012;2023-04-07T01:45:00;7.40;;;6.70;;
8225;SDS011;4154;48.810;9.012;2023-04-07T01:47:28;7.87;;;7.07;;
8225;SDS011;4154;48.810;9.012;2023-04-07T01:49:58;7.67;;;6.83;;
8225;SDS011;4154;48.810;9.012;2023-04-07T01:52:25;7.90;;;7.10;;
8225;SDS011;4154;48.810;9.012;2023-04-07T01:54:52;7.57;;;6.87;;
8225;SDS011;4154;48.810;9.012;2023-04-07T01:57:19;7.10;;;6.40;;
8225;SDS011;4154;48.810;9.012;2023-04-07T01:59:45;8.33;;;7.53;;
8225;SDS011;4154;48.810;9.012;2023-04-07T02:02:11;7.67;;;6.87;;
8225;SDS011;4154;48.810;9.012;2023-04-07T02:04:45;8.37;;;7.57;;
8225;SDS011;4154;48.810;9.012;2023-04-07T02:10:11;8.43;;;7.17;;
8225;SDS011;4154;48.810;9.012;2023-04-07T02:12:40;9.47;;;7.10;;
8225;SDS011;4154;48.810;9.012;2023-04-07T02:15:10;8.57;;;7.47;;
8225;SDS011;4154;48.810;9.012;2023-04-07T02:17:40;8.07;;;7.27;;
8225;SDS011;4154;48.810;9.012;2023-04-07T02:20:11;8.40;;;7.60;;
8225;SDS011;4154;48.810;9.012;2023-04-07T02:22:40;8.43;;;7.53;;
8225;SDS011;4154;48.810;9.012;2023-04-07T02:27:55;7.50;;;6.70;;
8225;SDS011;4154;48.810;9.012;2023-04-07T02:30:23;7.87;;;7.07;;
8225;SDS011;4154;48.810;9.012;2023-04-07T02:32:51;7.77;;;6.97;;
8225;SDS011;4154;48.810;9.012;2023-04-07T02:35:18;7.77;;;6.97;;
8225;SDS011;4154;48.810;9.012;2023-04-07T02:37:44;7.90;;;6.97;;
8225;SDS011;4154;48.810;9.012;2023-04-07T02:40:11;8.13;;;7.37;;
8225;SDS011;4154;48.810;9.012;2023-04-07T02:42:37;7.60;;;6.90;;
8225;SDS011;4154;48.810;9.012;2023-04-07T02:45:04;8.67;;;7.80;;
8225;SDS011;4154;48.810;9.012;2023-04-07T02:47:31;9.23;;;7.30;;
8225;SDS011;4154;48.810;9.012;2023-04-07T02:49:58;8.93;;;7.30;;
8225;SDS011;4154;48.810;9.012;2023-04-07T02:52:24;7.87;;;7.17;;
8225;SDS011;4154;48.810;9.012;2023-04-07T02:54:50;7.80;;;7.00;;
8225;SDS011;4154;48.810;9.012;2023-04-07T02:57:16;7.63;;;6.93;;
8225;SDS011;4154;48.810;9.012;2023-04-07T02:59:42;7.37;;;6.67;;
8225;SDS011;4154;48.810;9.012;2023-04-07T03:02:08;7.80;;;7.00;;
8225;SDS011;4154;48.810;9.012;2023-04-07T03:04:34;7.93;;;7.13;;
8225;SDS011;4154;48.810;9.012;2023-04-07T03:07:00;7.63;;;6.83;;
8225;SDS011;4154;48.810;9.012;2023-04-07T03:09:26;8.73;;;7.37;;
8225;SDS011;4154;48.810;9.012;2023-04-07T03:11:51;7.63;;;6.67;;
8225;SDS011;4154;48.810;9.012;2023-04-07T03:14:17;7.67;;;6.83;;
8225;SDS011;4154;48.810;9.012;2023-04-07T03:16:43;7.60;;;6.90;;
8225;SDS011;4154;48.810;9.012;2023-04-07T03:19:09;7.33;;;6.63;;
8225;SDS011;4154;48.810;9.012;2023-04-07T03:21:36;7.73;;;7.03;;
8225;SDS011;4154;48.810;9.012;2023-04-07T03:24:03;7.73;;;6.67;;
8225;SDS011;4154;48.810;9.012;2023-04-07T03:26:30;8.10;;;7.30;;
8225;SDS011;4154;48.810;9.012;2023-04-07T03:28:56;7.50;;;6.80;;
8225;SDS011;4154;48.810;9.012;2023-04-07T03:31:22;7.87;;;7.07;;
8225;SDS011;4154;48.810;9.012;2023-04-07T03:33:48;7.50;;;6.80;;
8225;SDS011;4154;48.810;9.012;2023-04-07T03:36:14;7.43;;;6.73;;
8225;SDS011;4154;48.810;9.012;2023-04-07T03:38:41;7.07;;;6.37;;
8225;SDS011;4154;48.810;9.012;2023-04-07T03:41:08;7.37;;;6.67;;
8225;SDS011;4154;48.810;9.012;2023-04-07T03:43:33;7.97;;;6.77;;
8225;SDS011;4154;48.810;9.012;2023-04-07T03:45:59;6.83;;;6.13;;
8225;SDS011;4154;48.810;9.012;2023-04-07T03:48:25;7.70;;;7.00;;
8225;SDS011;4154;48.810;9.012;2023-04-07T03:50:51;7.63;;;6.90;;
8225;SDS011;4154;48.810;9.012;2023-04-07T03:53:17;8.23;;;7.33;;
8225;SDS011;4154;48.810;9.012;2023-04-07T03:55:43;7.63;;;6.70;;
8225;SDS011;4154;48.810;9.012;2023-04-07T03:58:09;7.37;;;6.67;;
8225;SDS011;4154;48.810;9.012;2023-04-07T04:00:35;7.87;;;7.10;;
8225;SDS011;4154;48.810;9.012;2023-04-07T04:03:02;7.50;;;6.80;;
8225;SDS011;4154;48.810;9.012;2023-04-07T04:05:28;7.30;;;6.60;;
8225;SDS011;4154;48.810;9.012;2023-04-07T04:07:54;8.17;;;7.07;;
8225;SDS011;4154;48.810;9.012;2023-04-07T04:10:20;7.90;;;7.10;;
8225;SDS011;4154;48.810;9.012;2023-04-07T04:12:46;7.37;;;6.67;;
8225;SDS011;4154;48.810;9.012;2023-04-07T04:15:13;8.23;;;7.10;;
8225;SDS011;4154;48.810;9.012;2023-04-07T04:17:40;7.40;;;6.70;;
8225;SDS011;4154;48.810;9.012;2023-04-07T04:20:06;7.90;;;7.10;;
8225;SDS011;4154;48.810;9.012;2023-04-07T04:22:32;8.23;;;7.43;;
8225;SDS011;4154;48.810;9.012;2023-04-07T04:24:59;8.17;;;7.30;;
8225;SDS011;4154;48.810;9.012;2023-04-07T04:27:25;7.77;;;7.00;;
8225;SDS011;4154;48.810;9.012;2023-04-07T04:29:51;7.53;;;6.83;;
8225;SDS011;4154;48.810;9.012;2023-04-07T04:32:19;8.23;;;7.43;;
8225;SDS011;4154;48.810;9.012;2023-04-07T04:34:45;7.80;;;7.00;;
8225;SDS011;4154;48.810;9.012;2023-04-07T04:37:11;8.30;;;7.37;;
8225;SDS011;4154;48.810;9.012;2023-04-07T04:39:37;8.10;;;7.30;;
8225;SDS011;4154;48.810;9.012;2023-04-07T04:42:02;8.30;;;7.50;;
8225;SDS011;4154;48.810;9.012;2023-04-07T04:44:29;8.10;;;7.17;;
8225;SDS011;4154;48.810;9.012;2023-04-07T04:46:55;7.90;;;7.10;;
8225;SDS011;4154;48.810;9.012;2023-04-07T04:49:21;8.23;;;7.40;;
8225;SDS011;4154;48.810;9.012;2023-04-07T04:51:47;8.43;;;7.57;;
8225;SDS011;4154;48.810;9.012;2023-04-07T04:54:12;7.50;;;6.80;;
8225;SDS011;4154;48.810;9.012;2023-04-07T04:56:38;8.20;;;7.40;;
8225;SDS011;4154;48.810;9.012;2023-04-07T04:59:04;8.93;;;8.03;;
8225;SDS011;4154;48.810;9.012;2023-04-07T05:01:30;8.17;;;7.30;;
8225;SDS011;4154;48.810;9.012;2023-04-07T05:03:56;8.43;;;7.63;;
8225;SDS011;4154;48.810;9.012;2023-04-07T05:06:22;9.57;;;7.80;;
8225;SDS011;4154;48.810;9.012;2023-04-07T05:08:47;8.40;;;7.60;;
8225;SDS011;4154;48.810;9.012;2023-04-07T05:11:13;8.67;;;7.77;;
8225;SDS011;4154;48.810;9.012;2023-04-07T05:13:40;7.80;;;7.00;;
8225;SDS011;4154;48.810;9.012;2023-04-07T05:16:06;8.47;;;7.10;;
8225;SDS011;4154;48.810;9.012;2023-04-07T05:18:32;8.40;;;7.60;;
8225;SDS011;4154;48.810;9.012;2023-04-07T05:20:57;8.27;;;7.47;;
8225;SDS011;4154;48.810;9.012;2023-04-07T05:23:23;8.17;;;7.37;;
8225;SDS011;4154;48.810;9.012;2023-04-07T05:25:48;8.33;;;7.53;;
8225;SDS011;4154;48.810;9.012;2023-04-07T05:28:15;10.37;;;7.33;;
8225;SDS011;4154;48.810;9.012;2023-04-07T05:30:41;8.07;;;7.27;;
8225;SDS011;4154;48.810;9.012;2023-04-07T05:33:06;8.67;;;7.77;;
8225;SDS011;4154;48.810;9.012;2023-04-07T05:35:32;8.83;;;7.93;;
8225;SDS011;4154;48.810;9.012;2023-04-07T05:37:58;9.27;;;7.97;;
8225;SDS011;4154;48.810;9.012;2023-04-07T05:40:24;9.43;;;8.37;;
8225;SDS011;4154;48.810;9.012;2023-04-07T05:42:50;8.60;;;7.73;;
8225;SDS011;4154;48.810;9.012;2023-04-07T05:45:15;8.83;;;7.93;;
8225;SDS011;4154;48.810;9.012;2023-04-07T05:47:41;8.13;;;7.30;;
8225;SDS011;4154;48.810;9.012;2023-04-07T05:50:07;9.37;;;8.27;;
8225;SDS011;4154;48.810;9.012;2023-04-07T05:52:33;8.37;;;7.57;;
8225;SDS011;4154;48.810;9.012;2023-04-07T05:54:59;8.80;;;7.90;;
8225;SDS011;4154;48.810;9.012;2023-04-07T05:57:24;9.07;;;7.53;;
8225;SDS011;4154;48.810;9.012;2023-04-07T05:59:52;8.23;;;7.33;;
8225;SDS011;4154;48.810;9.012;2023-04-07T06:02:17;8.20;;;7.40;;
8225;SDS011;4154;48.810;9.012;2023-04-07T06:04:43;8.97;;;8.07;;
8225;SDS011;4154;48.810;9.012;2023-04-07T06:07:09;8.57;;;7.67;;
8225;SDS011;4154;48.810;9.012;2023-04-07T06:09:34;8.33;;;7.37;;
8225;SDS011;4154;48.810;9.012;2023-04-07T06:12:00;9.00;;;7.70;;
8225;SDS011;4154;48.810;9.012;2023-04-07T06:14:28;8.50;;;7.63;;
8225;SDS011;4154;48.810;9.012;2023-04-07T06:16:54;7.47;;;6.77;;
8225;SDS011;4154;48.810;9.012;2023-04-07T06:19:20;8.53;;;7.63;;
8225;SDS011;4154;48.810;9.012;2023-04-07T06:21:46;8.33;;;7.53;;
8225;SDS011;4154;48.810;9.012;2023-04-07T06:24:11;7.97;;;7.17;;
8225;SDS011;4154;48.810;9.012;2023-04-07T06:26:38;8.07;;;7.20;;
8225;SDS011;4154;48.810;9.012;2023-04-07T06:29:05;8.07;;;7.30;;
8225;SDS011;4154;48.810;9.012;2023-04-07T06:31:31;8.43;;;7.53;;
8225;SDS011;4154;48.810;9.012;2023-04-07T06:33:57;8.03;;;7.23;;
8225;SDS011;4154;48.810;9.012;2023-04-07T06:36:22;8.93;;;8.13;;
8225;SDS011;4154;48.810;9.012;2023-04-07T06:38:49;9.63;;;8.27;;
8225;SDS011;4154;48.810;9.012;2023-04-07T06:41:15;9.00;;;7.87;;
8225;SDS011;4154;48.810;9.012;2023-04-07T06:43:43;8.03;;;7.23;;
8225;SDS011;4154;48.810;9.012;2023-04-07T06:46:15;8.27;;;7.27;;
8225;SDS011;4154;48.810;9.012;2023-04-07T06:48:41;8.57;;;7.73;;
8225;SDS011;4154;48.810;9.012;2023-04-07T06:51:07;9.03;;;7.83;;
8225;SDS011;4154;48.810;9.012;2023-04-07T06:53:33;8.27;;;7.43;;
8225;SDS011;4154;48.810;9.012;2023-04-07T06:56:03;8.60;;;7.50;;
8225;SDS011;4154;48.810;9.012;2023-04-07T06:58:36;8.40;;;7.50;;
8225;SDS011;4154;48.810;9.012;2023-04-07T07:01:02;7.87;;;7.17;;
8225;SDS011;4154;48.810;9.012;2023-04-07T07:03:29;6.80;;;6.10;;
8225;SDS011;4154;48.810;9.012;2023-04-07T07:05:59;6.70;;;6.10;;
8225;SDS011;4154;48.810;9.012;2023-04-07T07:08:26;6.80;;;6.20;;
8225;SDS011;4154;48.810;9.012;2023-04-07T07:10:53;7.00;;;6.30;;
8225;SDS011;4154;48.810;9.012;2023-04-07T07:13:21;6.43;;;5.73;;
8225;SDS011;4154;48.810;9.012;2023-04-07T07:15:48;7.07;;;6.37;;
8225;SDS011;4154;48.810;9.012;2023-04-07T07:18:15;6.63;;;6.03;;
8225;SDS011;4154;48.810;9.012;2023-04-07T07:20:41;6.77;;;6.03;;
8225;SDS011;4154;48.810;9.012;2023-04-07T07:23:07;6.50;;;5.50;;
8225;SDS011;4154;48.810;9.012;2023-04-07T07:25:33;6.40;;;5.67;;
8225;SDS011;4154;48.810;9.012;2023-04-07T07:27:59;6.97;;;5.67;;
8225;SDS011;4154;48.810;9.012;2023-04-07T07:30:25;5.67;;;5.13;;
8225;SDS011;4154;48.810;9.012;2023-04-07T07:32:51;5.80;;;5.30;;
8225;SDS011;4154;48.810;9.012;2023-04-07T07:35:18;6.10;;;5.50;;
8225;SDS011;4154;48.810;9.012;2023-04-07T07:37:45;5.93;;;5.13;;
8225;SDS011;4154;48.810;9.012;2023-04-07T07:40:11;5.37;;;4.97;;
8225;SDS011;4154;48.810;9.012;2023-04-07T07:42:39;6.43;;;5.23;;
8225;SDS011;4154;48.810;9.012;2023-04-07T07:45:05;5.70;;;5.20;;
8225;SDS011;4154;48.810;9.012;2023-04-07T07:47:32;5.03;;;4.50;;
8225;SDS011;4154;48.810;9.012;2023-04-07T07:50:00;5.77;;;4.90;;
8225;SDS011;4154;48.810;9.012;2023-04-07T07:52:26;4.93;;;4.43;;
8225;SDS011;4154;48.810;9.012;2023-04-07T07:54:52;4.80;;;4.30;;
8225;SDS011;4154;48.810;9.012;2023-04-07T07:57:18;4.80;;;3.50;;
8225;SDS011;4154;48.810;9.012;2023-04-07T07:59:45;4.07;;;3.67;;
8225;SDS011;4154;48.810;9.012;2023-04-07T08:02:12;4.97;;;3.70;;
8225;SDS011;4154;48.810;9.012;2023-04-07T08:04:38;4.47;;;3.40;;
8225;SDS011;4154;48.810;9.012;2023-04-07T08:07:04;3.80;;;3.40;;
8225;SDS011;4154;48.810;9.012;2023-04-07T08:09:30;4.67;;;3.60;;
8225;SDS011;4154;48.810;9.012;2023-04-07T08:11:57;3.60;;;3.30;;
8225;SDS011;4154;48.810;9.012;2023-04-07T08:14:23;3.57;;;3.27;;
8225;SDS011;4154;48.810;9.012;2023-04-07T08:16:50;3.80;;;3.40;;
8225;SDS011;4154;48.810;9.012;2023-04-07T08:19:16;3.73;;;3.20;;
8225;SDS011;4154;48.810;9.012;2023-04-07T08:21:42;3.60;;;3.30;;
8225;SDS011;4154;48.810;9.012;2023-04-07T08:24:08;4.80;;;3.40;;
8225;SDS011;4154;48.810;9.012;2023-04-07T08:26:34;3.67;;;3.37;;
8225;SDS011;4154;48.810;9.012;2023-04-07T08:29:00;3.67;;;3.30;;
8225;SDS011;4154;48.810;9.012;2023-04-07T08:31:29;4.20;;;3.60;;
8225;SDS011;4154;48.810;9.012;2023-04-07T08:33:55;5.07;;;3.83;;
8225;SDS011;4154;48.810;9.012;2023-04-07T08:36:24;4.33;;;3.20;;
8225;SDS011;4154;48.810;9.012;2023-04-07T08:38:51;4.43;;;3.10;;
8225;SDS011;4154;48.810;9.012;2023-04-07T08:41:26;2.80;;;2.60;;
8225;SDS011;4154;48.810;9.012;2023-04-07T08:44:00;3.43;;;2.93;;
8225;SDS011;4154;48.810;9.012;2023-04-07T08:46:27;5.83;;;3.50;;
8225;SDS011;4154;48.810;9.012;2023-04-07T08:48:55;4.47;;;3.10;;
8225;SDS011;4154;48.810;9.012;2023-04-07T08:51:28;4.50;;;3.57;;
8225;SDS011;4154;48.810;9.012;2023-04-07T08:54:02;4.00;;;3.53;;
8225;SDS011;4154;48.810;9.012;2023-04-07T08:56:35;4.50;;;3.90;;
8225;SDS011;4154;48.810;9.012;2023-04-07T08:59:07;4.27;;;3.97;;
8225;SDS011;4154;48.810;9.012;2023-04-07T09:01:39;4.17;;;3.60;;
8225;SDS011;4154;48.810;9.012;2023-04-07T09:04:06;4.10;;;3.70;;
8225;SDS011;4154;48.810;9.012;2023-04-07T09:06:33;4.10;;;3.70;;
8225;SDS011;4154;48.810;9.012;2023-04-07T09:09:00;3.60;;;3.30;;
8225;SDS011;4154;48.810;9.012;2023-04-07T09:11:29;4.00;;;3.53;;
8225;SDS011;4154;48.810;9.012;2023-04-07T09:14:00;4.93;;;3.60;;
8225;SDS011;4154;48.810;9.012;2023-04-07T09:16:27;3.70;;;3.40;;
8225;SDS011;4154;48.810;9.012;2023-04-07T09:18:55;4.07;;;3.20;;
8225;SDS011;4154;48.810;9.012;2023-04-07T09:21:21;4.77;;;2.97;;
8225;SDS011;4154;48.810;9.012;2023-04-07T09:23:48;4.20;;;2.77;;
8225;SDS011;4154;48.810;9.012;2023-04-07T09:28:46;4.53;;;2.73;;
8225;SDS011;4154;48.810;9.012;2023-04-07T09:31:15;3.60;;;2.73;;
8225;SDS011;4154;48.810;9.012;2023-04-07T09:33:41;3.00;;;2.60;;
8225;SDS011;4154;48.810;9.012;2023-04-07T09:36:07;3.70;;;2.63;;
8225;SDS011;4154;48.810;9.012;2023-04-07T09:38:35;4.63;;;2.90;;
8225;SDS011;4154;48.810;9.012;2023-04-07T09:41:04;3.10;;;2.80;;
8225;SDS011;4154;48.810;9.012;2023-04-07T09:43:42;4.73;;;2.53;;
8225;SDS011;4154;48.810;9.012;2023-04-07T09:46:11;2.50;;;2.20;;
8225;SDS011;4154;48.810;9.012;2023-04-07T09:48:44;4.33;;;2.80;;
8225;SDS011;4154;48.810;9.012;2023-04-07T09:51:11;5.17;;;3.60;;
8225;SDS011;4154;48.810;9.012;2023-04-07T09:53:42;5.13;;;4.63;;
8225;SDS011;4154;48.810;9.012;2023-04-07T09:56:18;5.73;;;4.70;;
8225;SDS011;4154;48.810;9.012;2023-04-07T09:58:49;5.40;;;4.50;;
8225;SDS011;4154;48.810;9.012;2023-04-07T10:01:19;5.23;;;4.40;;
8225;SDS011;4154;48.810;9.012;2023-04-07T10:03:48;7.47;;;4.20;;
8225;SDS011;4154;48.810;9.012;2023-04-07T10:06:20;4.40;;;4.00;;
8225;SDS011;4154;48.810;9.012;2023-04-07T10:08:47;6.20;;;4.33;;
8225;SDS011;4154;48.810;9.012;2023-04-07T10:11:13;4.77;;;4.13;;
8225;SDS011;4154;48.810;9.012;2023-04-07T10:13:40;4.93;;;3.77;;
8225;SDS011;4154;48.810;9.012;2023-04-07T10:16:07;3.70;;;3.40;;
8225;SDS011;4154;48.810;9.012;2023-04-07T10:18:33;5.83;;;5.03;;
8225;SDS011;4154;48.810;9.012;2023-04-07T10:21:03;5.10;;;4.70;;
8225;SDS011;4154;48.810;9.012;2023-04-07T10:26:44;5.03;;;4.53;;
8225;SDS011;4154;48.810;9.012;2023-04-07T10:29:17;7.83;;;4.43;;
8225;SDS011;4154;48.810;9.012;2023-04-07T10:31:44;4.00;;;3.60;;
8225;SDS011;4154;48.810;9.012;2023-04-07T10:34:11;3.80;;;3.17;;
8225;SDS011;4154;48.810;9.012;2023-04-07T10:39:35;4.63;;;2.60;;
8225;SDS011;4154;48.810;9.012;2023-04-07T10:42:01;3.93;;;2.20;;
8225;SDS011;4154;48.810;9.012;2023-04-07T10:47:03;4.43;;;2.27;;
8225;SDS011;4154;48.810;9.012;2023-04-07T10:49:31;2.60;;;2.13;;
8225;SDS011;4154;48.810;9.012;2023-04-07T10:54:37;3.20;;;2.07;;
8225;SDS011;4154;48.810;9.012;2023-04-07T10:57:04;2.73;;;2.03;;
8225;SDS011;4154;48.810;9.012;2023-04-07T10:59:35;3.30;;;1.90;;
8225;SDS011;4154;48.810;9.012;2023-04-07T11:04:41;4.10;;;1.90;;
8225;SDS011;4154;48.810;9.012;2023-04-07T11:07:09;3.33;;;1.87;;
8225;SDS011;4154;48.810;9.012;2023-04-07T11:09:37;3.33;;;2.20;;
8225;SDS011;4154;48.810;9.012;2023-04-07T11:12:04;4.80;;;3.10;;
8225;SDS011;4154;48.810;9.012;2023-04-07T11:14:31;4.27;;;3.73;;
8225;SDS011;4154;48.810;9.012;2023-04-07T11:16:58;6.23;;;4.23;;
8225;SDS011;4154;48.810;9.012;2023-04-07T11:19:25;4.97;;;4.07;;
8225;SDS011;4154;48.810;9.012;2023-04-07T11:22:11;4.70;;;3.43;;
8225;SDS011;4154;48.810;9.012;2023-04-07T11:24:41;4.73;;;3.07;;
8225;SDS011;4154;48.810;9.012;2023-04-07T11:27:13;3.60;;;3.30;;
8225;SDS011;4154;48.810;9.012;2023-04-07T11:29:40;6.47;;;4.00;;
8225;SDS011;4154;48.810;9.012;2023-04-07T11:32:05;5.17;;;4.17;;
8225;SDS011;4154;48.810;9.012;2023-04-07T11:34:32;5.10;;;4.10;;
8225;SDS011;4154;48.810;9.012;2023-04-07T11:37:19;6.57;;;5.00;;
8225;SDS011;4154;48.810;9.012;2023-04-07T11:39:55;5.90;;;4.83;;
8225;SDS011;4154;48.810;9.012;2023-04-07T11:42:32;6.13;;;5.03;;
8225;SDS011;4154;48.810;9.012;2023-04-07T11:45:00;6.27;;;5.07;;
8225;SDS011;4154;48.810;9.012;2023-04-07T11:47:35;6.53;;;4.83;;
8225;SDS011;4154;48.810;9.012;2023-04-07T11:50:04;5.60;;;4.77;;
8225;SDS011;4154;48.810;9.012;2023-04-07T11:57:48;7.00;;;6.30;;
8225;SDS011;4154;48.810;9.012;2023-04-07T12:00:18;8.60;;;7.40;;
8225;SDS011;4154;48.810;9.012;2023-04-07T12:02:45;9.53;;;8.60;;
8225;SDS011;4154;48.810;9.012;2023-04-07T12:05:11;9.13;;;8.23;;
8225;SDS011;4154;48.810;9.012;2023-04-07T12:07:38;10.57;;;9.57;;
8225;SDS011;4154;48.810;9.012;2023-04-07T12:10:18;9.40;;;8.50;;
8225;SDS011;4154;48.810;9.012;2023-04-07T12:12:51;8.17;;;7.30;;
8225;SDS011;4154;48.810;9.012;2023-04-07T12:15:17;6.17;;;5.57;;
8225;SDS011;4154;48.810;9.012;2023-04-07T12:17:45;6.73;;;6.10;;
8225;SDS011;4154;48.810;9.012;2023-04-07T12:20:12;6.70;;;6.10;;
8225;SDS011;4154;48.810;9.012;2023-04-07T12:22:40;6.10;;;5.60;;
8225;SDS011;4154;48.810;9.012;2023-04-07T12:25:06;6.03;;;5.53;;
8225;SDS011;4154;48.810;9.012;2023-04-07T12:27:32;5.97;;;5.37;;
8225;SDS011;4154;48.810;9.012;2023-04-07T12:29:58;5.77;;;5.23;;
8225;SDS011;4154;48.810;9.012;2023-04-07T12:32:25;5.70;;;5.10;;
8225;SDS011;4154;48.810;9.012;2023-04-07T12:34:52;5.50;;;5.00;;
8225;SDS011;4154;48.810;9.012;2023-04-07T12:37:18;5.37;;;4.87;;
8225;SDS011;4154;48.810;9.012;2023-04-07T12:39:43;6.90;;;5.63;;
8225;SDS011;4154;48.810;9.012;2023-04-07T12:42:09;5.40;;;4.90;;
8225;SDS011;4154;48.810;9.012;2023-04-07T12:44:36;6.27;;;5.07;;
8225;SDS011;4154;48.810;9.012;2023-04-07T12:47:02;4.83;;;4.43;;
8225;SDS011;4154;48.810;9.012;2023-04-07T12:49:28;4.00;;;3.60;;
8225;SDS011;4154;48.810;9.012;2023-04-07T12:51:54;4.00;;;3.60;;
8225;SDS011;4154;48.810;9.012;2023-04-07T12:54:20;4.07;;;3.67;;
8225;SDS011;4154;48.810;9.012;2023-04-07T12:56:46;3.40;;;3.10;;
8225;SDS011;4154;48.810;9.012;2023-04-07T12:59:14;4.83;;;4.17;;
8225;SDS011;4154;48.810;9.012;2023-04-07T13:01:39;4.97;;;4.27;;
8225;SDS011;4154;48.810;9.012;2023-04-07T13:04:06;4.13;;;3.73;;
8225;SDS011;4154;48.810;9.012;2023-04-07T13:06:32;3.83;;;3.53;;
8225;SDS011;4154;48.810;9.012;2023-04-07T13:08:57;4.20;;;3.80;;
8225;SDS011;4154;48.810;9.012;2023-04-07T13:11:23;4.20;;;3.80;;
8225;SDS011;4154;48.810;9.012;2023-04-07T13:13:49;3.43;;;3.13;;
8225;SDS011;4154;48.810;9.012;2023-04-07T13:16:15;4.13;;;3.00;;
8225;SDS011;4154;48.810;9.012;2023-04-07T13:18:41;4.50;;;3.53;;
8225;SDS011;4154;48.810;9.012;2023-04-07T13:21:06;3.63;;;3.10;;
8225;SDS011;4154;48.810;9.012;2023-04-07T13:23:32;3.37;;;3.07;;
8225;SDS011;4154;48.810;9.012;2023-04-07T13:25:57;3.50;;;3.20;;
8225;SDS011;4154;48.810;9.012;2023-04-07T13:28:23;3.60;;;3.30;;
8225;SDS011;4154;48.810;9.012;2023-04-07T13:30:49;3.80;;;3.20;;
8225;SDS011;4154;48.810;9.012;2023-04-07T13:33:15;3.73;;;3.37;;
8225;SDS011;4154;48.810;9.012;2023-04-07T13:35:41;3.57;;;3.27;;
8225;SDS011;4154;48.810;9.012;2023-04-07T13:38:06;3.80;;;3.20;;
8225;SDS011;4154;48.810;9.012;2023-04-07T13:40:33;3.37;;;3.07;;
8225;SDS011;4154;48.810;9.012;2023-04-07T13:42:58;3.63;;;3.33;;
8225;SDS011;4154;48.810;9.012;2023-04-07T13:45:25;4.10;;;3.70;;
8225;SDS011;4154;48.810;9.012;2023-04-07T13:47:51;3.90;;;3.47;;
8225;SDS011;4154;48.810;9.012;2023-04-07T13:50:17;3.93;;;3.30;;
8225;SDS011;4154;48.810;9.012;2023-04-07T13:52:42;3.30;;;3.00;;
8225;SDS011;4154;48.810;9.012;2023-04-07T13:55:08;3.83;;;3.40;;
8225;SDS011;4154;48.810;9.012;2023-04-07T13:57:35;3.40;;;3.07;;
8225;SDS011;4154;48.810;9.012;2023-04-07T14:00:01;3.93;;;3.23;;
8225;SDS011;4154;48.810;9.012;2023-04-07T14:02:29;4.17;;;3.67;;
8225;SDS011;4154;48.810;9.012;2023-04-07T14:04:56;4.00;;;3.60;;
8225;SDS011;4154;48.810;9.012;2023-04-07T14:07:22;4.10;;;3.40;;
8225;SDS011;4154;48.810;9.012;2023-04-07T14:09:48;4.03;;;3.43;;
8225;SDS011;4154;48.810;9.012;2023-04-07T14:12:14;4.00;;;3.67;;
8225;SDS011;4154;48.810;9.012;2023-04-07T14:14:41;3.83;;;3.50;;
8225;SDS011;4154;48.810;9.012;2023-04-07T14:17:07;5.03;;;3.37;;
8225;SDS011;4154;48.810;9.012;2023-04-07T14:19:33;4.83;;;3.50;;
8225;SDS011;4154;48.810;9.012;2023-04-07T14:21:59;4.63;;;3.10;;
8225;SDS011;4154;48.810;9.012;2023-04-07T14:24:25;4.97;;;3.30;;
8225;SDS011;4154;48.810;9.012;2023-04-07T14:26:51;3.17;;;2.87;;
8225;SDS011;4154;48.810;9.012;2023-04-07T14:29:18;3.00;;;2.63;;
8225;SDS011;4154;48.810;9.012;2023-04-07T14:31:47;3.40;;;2.80;;
8225;SDS011;4154;48.810;9.012;2023-04-07T14:34:15;4.87;;;2.87;;
8225;SDS011;4154;48.810;9.012;2023-04-07T14:36:42;4.20;;;2.90;;
8225;SDS011;4154;48.810;9.012;2023-04-07T14:39:21;3.00;;;2.77;;
8225;SDS011;4154;48.810;9.012;2023-04-07T14:41:48;4.20;;;2.77;;
8225;SDS011;4154;48.810;9.012;2023-04-07T14:44:14;3.60;;;2.90;;
8225;SDS011;4154;48.810;9.012;2023-04-07T14:46:40;3.30;;;2.90;;
8225;SDS011;4154;48.810;9.012;2023-04-07T14:49:07;4.43;;;3.10;;
8225;SDS011;4154;48.810;9.012;2023-04-07T14:51:33;3.90;;;2.80;;
8225;SDS011;4154;48.810;9.012;2023-04-07T14:54:00;5.10;;;3.50;;
8225;SDS011;4154;48.810;9.012;2023-04-07T14:56:27;5.07;;;3.00;;
8225;SDS011;4154;48.810;9.012;2023-04-07T14:58:53;4.20;;;3.80;;
8225;SDS011;4154;48.810;9.012;2023-04-07T15:01:18;4.00;;;3.33;;
8225;SDS011;4154;48.810;9.012;2023-04-07T15:03:44;3.23;;;2.93;;
8225;SDS011;4154;48.810;9.012;2023-04-07T15:06:11;2.90;;;2.70;;
8225;SDS011;4154;48.810;9.012;2023-04-07T15:08:38;3.70;;;3.30;;
8225;SDS011;4154;48.810;9.012;2023-04-07T15:11:09;3.63;;;3.20;;
8225;SDS011;4154;48.810;9.012;2023-04-07T15:13:34;4.23;;;3.20;;
8225;SDS011;4154;48.810;9.012;2023-04-07T15:16:04;3.30;;;3.00;;
8225;SDS011;4154;48.810;9.012;2023-04-07T15:18:37;3.47;;;3.17;;
8225;SDS011;4154;48.810;9.012;2023-04-07T15:21:09;3.83;;;3.40;;
8225;SDS011;4154;48.810;9.012;2023-04-07T15:23:36;4.83;;;3.40;;
8225;SDS011;4154;48.810;9.012;2023-04-07T15:26:03;6.30;;;3.60;;
8225;SDS011;4154;48.810;9.012;2023-04-07T15:28:30;3.93;;;3.53;;
8225;SDS011;4154;48.810;9.012;2023-04-07T15:30:56;4.50;;;3.60;;
8225;SDS011;4154;48.810;9.012;2023-04-07T15:33:22;3.60;;;3.30;;
8225;SDS011;4154;48.810;9.012;2023-04-07T15:35:48;4.40;;;3.37;;
8225;SDS011;4154;48.810;9.012;2023-04-07T15:38:15;6.20;;;3.73;;
8225;SDS011;4154;48.810;9.012;2023-04-07T15:40:41;4.70;;;3.70;;
8225;SDS011;4154;48.810;9.012;2023-04-07T15:43:07;4.10;;;3.33;;
8225;SDS011;4154;48.810;9.012;2023-04-07T15:45:38;4.77;;;3.80;;
8225;SDS011;4154;48.810;9.012;2023-04-07T15:48:06;4.67;;;3.33;;
8225;SDS011;4154;48.810;9.012;2023-04-07T15:50:35;3.83;;;3.30;;